sensor_id;sensor_type;location;lat;lon;timestamp;P1;durP1;ratioP1;P2;durP2;ratioP2
63693;SDS011;49839;51.798;10.954;2023-02-15T00:00:30;10.02;;;3.80;;
63693;SDS011;49839;51.798;10.954;2023-02-15T00:02:57;7.90;;;3.05;;
63693;SDS011;49839;51.798;10.954;2023-02-15T00:05:26;6.40;;;2.90;;
63693;SDS011;49839;51.798;10.954;2023-02-15T00:07:55;8.93;;;3.15;;
63693;SDS011;49839;51.798;10.954;2023-02-15T00:10:22;9.13;;;3.10;;
63693;SDS011;49839;51.798;10.954;2023-02-15T00:12:50;8.40;;;3.42;;
63693;SDS011;49839;51.798;10.954;2023-02-15T00:15:17;9.32;;;3.83;;
63693;SDS011;49839;51.798;10.954;2023-02-15T00:17:45;9.02;;;3.85;;
63693;SDS011;49839;51.798;10.954;2023-02-15T00:20:12;10.38;;;3.83;;
63693;SDS011;49839;51.798;10.954;2023-02-15T00:22:41;8.75;;;3.85;;
63693;SDS011;49839;51.798;10.954;2023-02-15T00:25:08;10.13;;;3.83;;
63693;SDS011;49839;51.798;10.954;2023-02-15T00:27:35;9.50;;;4.05;;
63693;SDS011;49839;51.798;10.954;2023-02-15T00:30:03;12.75;;;4.18;;
63693;SDS011;49839;51.798;10.954;2023-02-15T00:32:32;7.53;;;3.60;;
63693;SDS011;49839;51.798;10.954;2023-02-15T00:34:59;10.13;;;3.80;;
63693;SDS011;49839;51.798;10.954;2023-02-15T00:37:26;9.88;;;3.67;;
63693;SDS011;49839;51.798;10.954;2023-02-15T00:39:55;7.03;;;3.38;;
63693;SDS011;49839;51.798;10.954;2023-02-15T00:42:22;8.25;;;3.60;;
63693;SDS011;49839;51.798;10.954;2023-02-15T00:44:49;12.05;;;4.65;;
63693;SDS011;49839;51.798;10.954;2023-02-15T00:47:17;12.82;;;3.80;;
63693;SDS011;49839;51.798;10.954;2023-02-15T00:49:44;8.65;;;4.35;;
63693;SDS011;49839;51.798;10.954;2023-02-15T00:52:11;11.93;;;4.30;;
63693;SDS011;49839;51.798;10.954;2023-02-15T00:54:39;13.05;;;4.75;;
63693;SDS011;49839;51.798;10.954;2023-02-15T00:57:07;12.40;;;4.50;;
63693;SDS011;49839;51.798;10.954;2023-02-15T00:59:35;10.55;;;4.07;;
63693;SDS011;49839;51.798;10.954;2023-02-15T01:02:02;13.27;;;4.78;;
63693;SDS011;49839;51.798;10.954;2023-02-15T01:04:30;11.70;;;4.70;;
63693;SDS011;49839;51.798;10.954;2023-02-15T01:06:57;19.38;;;5.88;;
63693;SDS011;49839;51.798;10.954;2023-02-15T01:09:24;12.27;;;4.75;;
63693;SDS011;49839;51.798;10.954;2023-02-15T01:11:52;13.35;;;4.38;;
63693;SDS011;49839;51.798;10.954;2023-02-15T01:14:21;10.20;;;4.65;;
63693;SDS011;49839;51.798;10.954;2023-02-15T01:16:48;12.90;;;5.38;;
63693;SDS011;49839;51.798;10.954;2023-02-15T01:19:15;11.73;;;4.95;;
63693;SDS011;49839;51.798;10.954;2023-02-15T01:21:43;13.13;;;5.00;;
63693;SDS011;49839;51.798;10.954;2023-02-15T01:24:11;12.10;;;4.80;;
63693;SDS011;49839;51.798;10.954;2023-02-15T01:26:39;9.18;;;3.85;;
63693;SDS011;49839;51.798;10.954;2023-02-15T01:29:06;12.45;;;4.75;;
63693;SDS011;49839;51.798;10.954;2023-02-15T01:31:34;10.70;;;4.15;;
63693;SDS011;49839;51.798;10.954;2023-02-15T01:34:05;10.57;;;3.95;;
63693;SDS011;49839;51.798;10.954;2023-02-15T01:36:33;11.27;;;4.70;;
63693;SDS011;49839;51.798;10.954;2023-02-15T01:39:00;11.25;;;3.88;;
63693;SDS011;49839;51.798;10.954;2023-02-15T01:41:27;10.48;;;4.13;;
63693;SDS011;49839;51.798;10.954;2023-02-15T01:43:56;11.73;;;4.30;;
63693;SDS011;49839;51.798;10.954;2023-02-15T01:46:26;9.02;;;3.33;;
63693;SDS011;49839;51.798;10.954;2023-02-15T01:48:56;7.38;;;2.45;;
63693;SDS011;49839;51.798;10.954;2023-02-15T01:51:26;7.05;;;1.98;;
63693;SDS011;49839;51.798;10.954;2023-02-15T01:53:55;6.35;;;2.30;;
63693;SDS011;49839;51.798;10.954;2023-02-15T01:56:24;6.18;;;2.25;;
63693;SDS011;49839;51.798;10.954;2023-02-15T01:58:52;7.22;;;2.35;;
63693;SDS011;49839;51.798;10.954;2023-02-15T02:01:21;8.87;;;2.70;;
63693;SDS011;49839;51.798;10.954;2023-02-15T02:03:50;6.63;;;2.55;;
63693;SDS011;49839;51.798;10.954;2023-02-15T02:06:21;8.95;;;2.22;;
63693;SDS011;49839;51.798;10.954;2023-02-15T02:08:51;5.35;;;2.35;;
63693;SDS011;49839;51.798;10.954;2023-02-15T02:11:20;8.75;;;2.63;;
63693;SDS011;49839;51.798;10.954;2023-02-15T02:13:48;6.22;;;1.92;;
63693;SDS011;49839;51.798;10.954;2023-02-15T02:16:19;8.57;;;2.30;;
63693;SDS011;49839;51.798;10.954;2023-02-15T02:18:51;5.80;;;2.00;;
63693;SDS011;49839;51.798;10.954;2023-02-15T02:21:32;2.67;;;1.50;;
63693;SDS011;49839;51.798;10.954;2023-02-15T02:24:20;7.82;;;2.38;;
63693;SDS011;49839;51.798;10.954;2023-02-15T02:27:05;6.13;;;2.40;;
63693;SDS011;49839;51.798;10.954;2023-02-15T02:29:45;7.05;;;2.05;;
63693;SDS011;49839;51.798;10.954;2023-02-15T02:35:21;4.47;;;1.65;;
63693;SDS011;49839;51.798;10.954;2023-02-15T02:37:51;6.60;;;2.25;;
63693;SDS011;49839;51.798;10.954;2023-02-15T02:40:24;6.18;;;1.73;;
63693;SDS011;49839;51.798;10.954;2023-02-15T02:42:54;4.50;;;1.85;;
63693;SDS011;49839;51.798;10.954;2023-02-15T02:45:25;5.13;;;1.83;;
63693;SDS011;49839;51.798;10.954;2023-02-15T02:47:53;5.97;;;1.58;;
63693;SDS011;49839;51.798;10.954;2023-02-15T02:52:51;4.13;;;1.40;;
63693;SDS011;49839;51.798;10.954;2023-02-15T02:55:20;6.55;;;1.50;;
63693;SDS011;49839;51.798;10.954;2023-02-15T02:57:51;3.35;;;1.48;;
63693;SDS011;49839;51.798;10.954;2023-02-15T03:00:20;5.13;;;1.85;;
63693;SDS011;49839;51.798;10.954;2023-02-15T03:02:48;3.33;;;1.50;;
63693;SDS011;49839;51.798;10.954;2023-02-15T03:05:18;3.95;;;1.42;;
63693;SDS011;49839;51.798;10.954;2023-02-15T03:07:48;3.38;;;1.50;;
63693;SDS011;49839;51.798;10.954;2023-02-15T03:10:18;4.93;;;1.50;;
63693;SDS011;49839;51.798;10.954;2023-02-15T03:12:47;4.50;;;1.65;;
63693;SDS011;49839;51.798;10.954;2023-02-15T03:15:16;4.05;;;1.92;;
63693;SDS011;49839;51.798;10.954;2023-02-15T03:17:47;4.65;;;1.40;;
63693;SDS011;49839;51.798;10.954;2023-02-15T03:20:16;4.75;;;1.52;;
63693;SDS011;49839;51.798;10.954;2023-02-15T03:22:46;7.80;;;1.60;;
63693;SDS011;49839;51.798;10.954;2023-02-15T03:25:16;3.00;;;1.30;;
63693;SDS011;49839;51.798;10.954;2023-02-15T03:27:46;3.45;;;1.40;;
63693;SDS011;49839;51.798;10.954;2023-02-15T03:30:14;3.78;;;1.10;;
63693;SDS011;49839;51.798;10.954;2023-02-15T03:32:43;4.57;;;1.30;;
63693;SDS011;49839;51.798;10.954;2023-02-15T03:35:11;3.58;;;1.30;;
63693;SDS011;49839;51.798;10.954;2023-02-15T03:37:40;4.53;;;1.73;;
63693;SDS011;49839;51.798;10.954;2023-02-15T03:40:09;4.18;;;1.02;;
63693;SDS011;49839;51.798;10.954;2023-02-15T03:42:58;9.68;;;3.45;;
63693;SDS011;49839;51.798;10.954;2023-02-15T03:45:28;18.92;;;6.18;;
63693;SDS011;49839;51.798;10.954;2023-02-15T03:47:56;22.13;;;8.00;;
63693;SDS011;49839;51.798;10.954;2023-02-15T03:50:26;26.67;;;8.17;;
63693;SDS011;49839;51.798;10.954;2023-02-15T03:53:13;15.88;;;5.63;;
63693;SDS011;49839;51.798;10.954;2023-02-15T03:55:41;10.55;;;3.80;;
63693;SDS011;49839;51.798;10.954;2023-02-15T03:58:10;13.00;;;4.32;;
63693;SDS011;49839;51.798;10.954;2023-02-15T04:00:57;4.22;;;1.50;;
63693;SDS011;49839;51.798;10.954;2023-02-15T04:03:43;5.43;;;1.63;;
63693;SDS011;49839;51.798;10.954;2023-02-15T04:06:11;14.47;;;5.27;;
63693;SDS011;49839;51.798;10.954;2023-02-15T04:08:39;5.95;;;2.13;;
63693;SDS011;49839;51.798;10.954;2023-02-15T04:11:24;5.28;;;1.80;;
63693;SDS011;49839;51.798;10.954;2023-02-15T04:13:52;8.02;;;2.60;;
63693;SDS011;49839;51.798;10.954;2023-02-15T04:16:22;4.28;;;1.63;;
63693;SDS011;49839;51.798;10.954;2023-02-15T04:18:49;9.02;;;3.75;;
63693;SDS011;49839;51.798;10.954;2023-02-15T04:21:34;8.40;;;3.50;;
63693;SDS011;49839;51.798;10.954;2023-02-15T04:24:19;9.00;;;3.20;;
63693;SDS011;49839;51.798;10.954;2023-02-15T04:27:04;8.32;;;2.72;;
63693;SDS011;49839;51.798;10.954;2023-02-15T04:29:33;8.48;;;2.70;;
63693;SDS011;49839;51.798;10.954;2023-02-15T04:32:00;9.18;;;3.10;;
63693;SDS011;49839;51.798;10.954;2023-02-15T04:34:28;8.23;;;3.00;;
63693;SDS011;49839;51.798;10.954;2023-02-15T04:36:55;11.77;;;3.33;;
63693;SDS011;49839;51.798;10.954;2023-02-15T04:39:23;9.50;;;3.00;;
63693;SDS011;49839;51.798;10.954;2023-02-15T04:41:50;11.27;;;2.40;;
63693;SDS011;49839;51.798;10.954;2023-02-15T04:44:17;7.60;;;2.65;;
63693;SDS011;49839;51.798;10.954;2023-02-15T04:46:46;7.30;;;2.92;;
63693;SDS011;49839;51.798;10.954;2023-02-15T04:49:13;5.57;;;2.58;;
63693;SDS011;49839;51.798;10.954;2023-02-15T04:51:41;4.60;;;1.98;;
63693;SDS011;49839;51.798;10.954;2023-02-15T04:54:08;4.35;;;1.50;;
63693;SDS011;49839;51.798;10.954;2023-02-15T04:56:35;5.88;;;1.40;;
63693;SDS011;49839;51.798;10.954;2023-02-15T04:59:05;3.33;;;1.58;;
63693;SDS011;49839;51.798;10.954;2023-02-15T05:01:32;3.63;;;1.40;;
63693;SDS011;49839;51.798;10.954;2023-02-15T05:04:01;6.80;;;1.40;;
63693;SDS011;49839;51.798;10.954;2023-02-15T05:06:28;5.00;;;2.80;;
63693;SDS011;49839;51.798;10.954;2023-02-15T05:08:56;6.97;;;3.92;;
63693;SDS011;49839;51.798;10.954;2023-02-15T05:11:25;22.90;;;13.82;;
63693;SDS011;49839;51.798;10.954;2023-02-15T05:13:52;23.02;;;11.80;;
63693;SDS011;49839;51.798;10.954;2023-02-15T05:16:19;15.57;;;8.00;;
63693;SDS011;49839;51.798;10.954;2023-02-15T05:18:47;7.63;;;3.35;;
63693;SDS011;49839;51.798;10.954;2023-02-15T05:21:16;5.40;;;2.00;;
63693;SDS011;49839;51.798;10.954;2023-02-15T05:23:43;5.72;;;1.75;;
63693;SDS011;49839;51.798;10.954;2023-02-15T05:26:10;6.40;;;1.90;;
63693;SDS011;49839;51.798;10.954;2023-02-15T05:28:56;5.25;;;1.80;;
63693;SDS011;49839;51.798;10.954;2023-02-15T05:31:24;3.30;;;1.48;;
63693;SDS011;49839;51.798;10.954;2023-02-15T05:33:51;4.63;;;1.45;;
63693;SDS011;49839;51.798;10.954;2023-02-15T05:36:20;4.05;;;1.65;;
63693;SDS011;49839;51.798;10.954;2023-02-15T05:38:48;4.50;;;1.77;;
63693;SDS011;49839;51.798;10.954;2023-02-15T05:41:15;5.53;;;2.20;;
63693;SDS011;49839;51.798;10.954;2023-02-15T05:43:42;5.40;;;1.45;;
63693;SDS011;49839;51.798;10.954;2023-02-15T05:46:10;4.70;;;1.92;;
63693;SDS011;49839;51.798;10.954;2023-02-15T05:48:37;3.63;;;1.77;;
63693;SDS011;49839;51.798;10.954;2023-02-15T05:51:05;8.68;;;3.92;;
63693;SDS011;49839;51.798;10.954;2023-02-15T05:53:35;8.50;;;4.20;;
63693;SDS011;49839;51.798;10.954;2023-02-15T05:56:03;8.57;;;3.42;;
63693;SDS011;49839;51.798;10.954;2023-02-15T05:58:32;7.65;;;3.20;;
63693;SDS011;49839;51.798;10.954;2023-02-15T06:01:06;5.20;;;2.40;;
63693;SDS011;49839;51.798;10.954;2023-02-15T06:03:34;5.13;;;2.10;;
63693;SDS011;49839;51.798;10.954;2023-02-15T06:06:01;5.22;;;1.92;;
63693;SDS011;49839;51.798;10.954;2023-02-15T06:08:30;3.80;;;1.50;;
63693;SDS011;49839;51.798;10.954;2023-02-15T06:10:59;3.65;;;1.85;;
63693;SDS011;49839;51.798;10.954;2023-02-15T06:13:26;6.00;;;3.03;;
63693;SDS011;49839;51.798;10.954;2023-02-15T06:15:54;7.35;;;2.47;;
63693;SDS011;49839;51.798;10.954;2023-02-15T06:18:21;4.53;;;1.70;;
63693;SDS011;49839;51.798;10.954;2023-02-15T06:20:49;4.18;;;1.58;;
63693;SDS011;49839;51.798;10.954;2023-02-15T06:23:16;4.97;;;1.60;;
63693;SDS011;49839;51.798;10.954;2023-02-15T06:25:44;3.20;;;1.42;;
63693;SDS011;49839;51.798;10.954;2023-02-15T06:28:13;3.78;;;1.30;;
63693;SDS011;49839;51.798;10.954;2023-02-15T06:30:40;3.57;;;1.43;;
63693;SDS011;49839;51.798;10.954;2023-02-15T06:33:08;4.57;;;1.13;;
63693;SDS011;49839;51.798;10.954;2023-02-15T06:35:35;2.95;;;1.20;;
63693;SDS011;49839;51.798;10.954;2023-02-15T06:38:02;4.50;;;1.30;;
63693;SDS011;49839;51.798;10.954;2023-02-15T06:40:30;5.32;;;1.38;;
63693;SDS011;49839;51.798;10.954;2023-02-15T06:42:57;3.58;;;1.48;;
63693;SDS011;49839;51.798;10.954;2023-02-15T06:45:26;3.30;;;1.42;;
63693;SDS011;49839;51.798;10.954;2023-02-15T06:47:53;4.57;;;1.45;;
63693;SDS011;49839;51.798;10.954;2023-02-15T06:50:20;2.78;;;1.45;;
63693;SDS011;49839;51.798;10.954;2023-02-15T06:52:48;4.72;;;1.77;;
63693;SDS011;49839;51.798;10.954;2023-02-15T06:55:15;4.65;;;1.73;;
63693;SDS011;49839;51.798;10.954;2023-02-15T06:57:43;5.35;;;1.75;;
63693;SDS011;49839;51.798;10.954;2023-02-15T07:00:11;4.38;;;2.00;;
63693;SDS011;49839;51.798;10.954;2023-02-15T07:02:40;9.05;;;4.60;;
63693;SDS011;49839;51.798;10.954;2023-02-15T07:05:08;9.25;;;4.38;;
63693;SDS011;49839;51.798;10.954;2023-02-15T07:07:35;11.68;;;4.90;;
63693;SDS011;49839;51.798;10.954;2023-02-15T07:10:03;5.55;;;2.65;;
63693;SDS011;49839;51.798;10.954;2023-02-15T07:12:30;12.65;;;5.05;;
63693;SDS011;49839;51.798;10.954;2023-02-15T07:15:11;6.88;;;2.88;;
63693;SDS011;49839;51.798;10.954;2023-02-15T07:17:38;7.63;;;3.22;;
63693;SDS011;49839;51.798;10.954;2023-02-15T07:20:09;8.30;;;3.30;;
63693;SDS011;49839;51.798;10.954;2023-02-15T07:22:39;4.88;;;2.30;;
63693;SDS011;49839;51.798;10.954;2023-02-15T07:25:08;4.82;;;2.45;;
63693;SDS011;49839;51.798;10.954;2023-02-15T07:27:35;7.03;;;2.70;;
63693;SDS011;49839;51.798;10.954;2023-02-15T07:30:03;4.13;;;1.98;;
63693;SDS011;49839;51.798;10.954;2023-02-15T07:32:31;8.77;;;2.70;;
63693;SDS011;49839;51.798;10.954;2023-02-15T07:34:59;3.15;;;1.23;;
63693;SDS011;49839;51.798;10.954;2023-02-15T07:37:27;3.85;;;1.70;;
63693;SDS011;49839;51.798;10.954;2023-02-15T07:39:55;4.35;;;1.67;;
63693;SDS011;49839;51.798;10.954;2023-02-15T07:42:22;7.32;;;2.30;;
63693;SDS011;49839;51.798;10.954;2023-02-15T07:44:49;3.78;;;1.45;;
63693;SDS011;49839;51.798;10.954;2023-02-15T07:47:18;3.80;;;1.70;;
63693;SDS011;49839;51.798;10.954;2023-02-15T07:49:46;3.95;;;1.90;;
63693;SDS011;49839;51.798;10.954;2023-02-15T07:52:15;2.58;;;1.23;;
63693;SDS011;49839;51.798;10.954;2023-02-15T07:54:44;5.65;;;2.40;;
63693;SDS011;49839;51.798;10.954;2023-02-15T07:57:11;3.50;;;1.50;;
63693;SDS011;49839;51.798;10.954;2023-02-15T07:59:38;6.10;;;1.90;;
63693;SDS011;49839;51.798;10.954;2023-02-15T08:02:08;3.75;;;1.30;;
63693;SDS011;49839;51.798;10.954;2023-02-15T08:04:35;3.45;;;1.30;;
63693;SDS011;49839;51.798;10.954;2023-02-15T08:07:02;4.22;;;1.30;;
63693;SDS011;49839;51.798;10.954;2023-02-15T08:09:30;2.70;;;1.30;;
63693;SDS011;49839;51.798;10.954;2023-02-15T08:11:59;3.20;;;1.33;;
63693;SDS011;49839;51.798;10.954;2023-02-15T08:14:26;3.42;;;1.10;;
63693;SDS011;49839;51.798;10.954;2023-02-15T08:16:54;3.53;;;1.08;;
63693;SDS011;49839;51.798;10.954;2023-02-15T08:19:23;2.88;;;1.48;;
63693;SDS011;49839;51.798;10.954;2023-02-15T08:21:51;3.17;;;1.33;;
63693;SDS011;49839;51.798;10.954;2023-02-15T08:24:20;2.67;;;1.23;;
63693;SDS011;49839;51.798;10.954;2023-02-15T08:26:48;4.43;;;1.27;;
63693;SDS011;49839;51.798;10.954;2023-02-15T08:29:18;3.45;;;1.70;;
63693;SDS011;49839;51.798;10.954;2023-02-15T08:31:46;2.22;;;1.02;;
63693;SDS011;49839;51.798;10.954;2023-02-15T08:34:15;2.55;;;1.20;;
63693;SDS011;49839;51.798;10.954;2023-02-15T08:36:42;2.53;;;1.08;;
63693;SDS011;49839;51.798;10.954;2023-02-15T08:39:12;2.67;;;1.10;;
63693;SDS011;49839;51.798;10.954;2023-02-15T08:41:41;2.60;;;1.05;;
63693;SDS011;49839;51.798;10.954;2023-02-15T08:44:09;5.35;;;2.30;;
63693;SDS011;49839;51.798;10.954;2023-02-15T08:46:39;5.07;;;1.67;;
63693;SDS011;49839;51.798;10.954;2023-02-15T08:49:07;3.00;;;1.23;;
63693;SDS011;49839;51.798;10.954;2023-02-15T08:51:36;4.20;;;2.15;;
63693;SDS011;49839;51.798;10.954;2023-02-15T08:54:05;2.75;;;1.20;;
63693;SDS011;49839;51.798;10.954;2023-02-15T08:56:34;3.55;;;1.38;;
63693;SDS011;49839;51.798;10.954;2023-02-15T08:59:02;5.75;;;1.48;;
63693;SDS011;49839;51.798;10.954;2023-02-15T09:01:30;5.03;;;2.38;;
63693;SDS011;49839;51.798;10.954;2023-02-15T09:04:00;5.72;;;2.33;;
63693;SDS011;49839;51.798;10.954;2023-02-15T09:06:28;6.40;;;2.90;;
63693;SDS011;49839;51.798;10.954;2023-02-15T09:08:56;7.13;;;3.63;;
63693;SDS011;49839;51.798;10.954;2023-02-15T09:11:24;5.18;;;2.70;;
63693;SDS011;49839;51.798;10.954;2023-02-15T09:13:52;5.40;;;2.45;;
63693;SDS011;49839;51.798;10.954;2023-02-15T09:16:20;13.05;;;6.82;;
63693;SDS011;49839;51.798;10.954;2023-02-15T09:18:47;7.85;;;4.20;;
63693;SDS011;49839;51.798;10.954;2023-02-15T09:21:17;9.07;;;3.55;;
63693;SDS011;49839;51.798;10.954;2023-02-15T09:23:45;5.75;;;2.80;;
63693;SDS011;49839;51.798;10.954;2023-02-15T09:26:14;8.73;;;2.60;;
63693;SDS011;49839;51.798;10.954;2023-02-15T09:28:41;5.88;;;2.63;;
63693;SDS011;49839;51.798;10.954;2023-02-15T09:31:09;7.45;;;2.85;;
63693;SDS011;49839;51.798;10.954;2023-02-15T09:33:37;7.77;;;3.50;;
63693;SDS011;49839;51.798;10.954;2023-02-15T09:36:06;7.88;;;3.25;;
63693;SDS011;49839;51.798;10.954;2023-02-15T09:38:41;5.13;;;1.73;;
63693;SDS011;49839;51.798;10.954;2023-02-15T09:41:16;5.90;;;2.45;;
63693;SDS011;49839;51.798;10.954;2023-02-15T09:43:50;1.80;;;0.88;;
63693;SDS011;49839;51.798;10.954;2023-02-15T09:46:30;1.13;;;0.60;;
63693;SDS011;49839;51.798;10.954;2023-02-15T09:49:02;2.15;;;0.98;;
63693;SDS011;49839;51.798;10.954;2023-02-15T09:51:41;1.98;;;0.85;;
63693;SDS011;49839;51.798;10.954;2023-02-15T09:54:17;1.27;;;0.57;;
63693;SDS011;49839;51.798;10.954;2023-02-15T09:56:48;2.25;;;0.63;;
63693;SDS011;49839;51.798;10.954;2023-02-15T09:59:19;1.33;;;0.52;;
63693;SDS011;49839;51.798;10.954;2023-02-15T10:01:50;2.05;;;1.00;;
63693;SDS011;49839;51.798;10.954;2023-02-15T10:04:24;3.60;;;1.08;;
63693;SDS011;49839;51.798;10.954;2023-02-15T10:06:59;6.28;;;2.00;;
63693;SDS011;49839;51.798;10.954;2023-02-15T10:09:38;9.35;;;2.35;;
63693;SDS011;49839;51.798;10.954;2023-02-15T10:12:16;4.43;;;2.20;;
63693;SDS011;49839;51.798;10.954;2023-02-15T10:14:56;8.35;;;3.10;;
63693;SDS011;49839;51.798;10.954;2023-02-15T10:17:31;7.50;;;3.00;;
63693;SDS011;49839;51.798;10.954;2023-02-15T10:20:03;6.60;;;2.60;;
63693;SDS011;49839;51.798;10.954;2023-02-15T10:22:38;8.60;;;3.45;;
63693;SDS011;49839;51.798;10.954;2023-02-15T10:25:14;9.93;;;3.45;;
63693;SDS011;49839;51.798;10.954;2023-02-15T10:27:44;7.20;;;3.38;;
63693;SDS011;49839;51.798;10.954;2023-02-15T10:30:13;6.30;;;2.67;;
63693;SDS011;49839;51.798;10.954;2023-02-15T10:32:41;8.02;;;2.58;;
63693;SDS011;49839;51.798;10.954;2023-02-15T10:35:15;18.98;;;3.08;;
63693;SDS011;49839;51.798;10.954;2023-02-15T10:37:58;10.80;;;2.67;;
63693;SDS011;49839;51.798;10.954;2023-02-15T10:40:31;6.88;;;2.55;;
63693;SDS011;49839;51.798;10.954;2023-02-15T10:43:05;10.77;;;2.45;;
63693;SDS011;49839;51.798;10.954;2023-02-15T10:45:39;6.00;;;2.25;;
63693;SDS011;49839;51.798;10.954;2023-02-15T10:48:16;5.93;;;2.05;;
63693;SDS011;49839;51.798;10.954;2023-02-15T10:50:46;8.20;;;2.15;;
63693;SDS011;49839;51.798;10.954;2023-02-15T10:53:24;5.53;;;1.95;;
63693;SDS011;49839;51.798;10.954;2023-02-15T10:55:57;10.40;;;2.20;;
63693;SDS011;49839;51.798;10.954;2023-02-15T10:58:30;10.23;;;2.30;;
63693;SDS011;49839;51.798;10.954;2023-02-15T11:01:01;3.78;;;1.77;;
63693;SDS011;49839;51.798;10.954;2023-02-15T11:03:40;5.75;;;1.85;;
63693;SDS011;49839;51.798;10.954;2023-02-15T11:06:09;5.10;;;2.00;;
63693;SDS011;49839;51.798;10.954;2023-02-15T11:08:39;8.18;;;2.30;;
63693;SDS011;49839;51.798;10.954;2023-02-15T11:11:09;4.63;;;2.83;;
63693;SDS011;49839;51.798;10.954;2023-02-15T11:13:38;6.97;;;1.95;;
63693;SDS011;49839;51.798;10.954;2023-02-15T11:16:07;4.75;;;1.80;;
63693;SDS011;49839;51.798;10.954;2023-02-15T11:18:39;7.47;;;1.90;;
63693;SDS011;49839;51.798;10.954;2023-02-15T11:21:07;6.55;;;1.65;;
63693;SDS011;49839;51.798;10.954;2023-02-15T11:23:36;4.80;;;1.90;;
63693;SDS011;49839;51.798;10.954;2023-02-15T11:26:10;10.32;;;2.05;;
63693;SDS011;49839;51.798;10.954;2023-02-15T11:28:42;7.20;;;2.17;;
63693;SDS011;49839;51.798;10.954;2023-02-15T11:31:12;5.93;;;1.90;;
63693;SDS011;49839;51.798;10.954;2023-02-15T11:33:42;11.30;;;3.08;;
63693;SDS011;49839;51.798;10.954;2023-02-15T11:36:11;7.97;;;2.22;;
63693;SDS011;49839;51.798;10.954;2023-02-15T11:38:40;6.65;;;2.30;;
63693;SDS011;49839;51.798;10.954;2023-02-15T11:41:10;8.70;;;2.28;;
63693;SDS011;49839;51.798;10.954;2023-02-15T11:43:39;5.78;;;2.30;;
63693;SDS011;49839;51.798;10.954;2023-02-15T11:46:10;3.95;;;1.70;;
63693;SDS011;49839;51.798;10.954;2023-02-15T11:48:38;9.70;;;2.50;;
63693;SDS011;49839;51.798;10.954;2023-02-15T11:51:08;5.87;;;2.00;;
63693;SDS011;49839;51.798;10.954;2023-02-15T11:53:38;8.43;;;2.80;;
63693;SDS011;49839;51.798;10.954;2023-02-15T11:56:12;7.75;;;2.60;;
63693;SDS011;49839;51.798;10.954;2023-02-15T11:58:41;10.32;;;3.80;;
63693;SDS011;49839;51.798;10.954;2023-02-15T12:01:13;11.68;;;3.65;;
63693;SDS011;49839;51.798;10.954;2023-02-15T12:03:44;7.20;;;3.28;;
63693;SDS011;49839;51.798;10.954;2023-02-15T12:06:15;7.07;;;3.72;;
63693;SDS011;49839;51.798;10.954;2023-02-15T12:08:46;8.23;;;4.82;;
63693;SDS011;49839;51.798;10.954;2023-02-15T12:11:17;14.90;;;5.25;;
63693;SDS011;49839;51.798;10.954;2023-02-15T12:16:34;10.65;;;5.28;;
63693;SDS011;49839;51.798;10.954;2023-02-15T12:19:10;9.50;;;6.07;;
63693;SDS011;49839;51.798;10.954;2023-02-15T12:21:40;8.63;;;5.70;;
63693;SDS011;49839;51.798;10.954;2023-02-15T12:24:16;13.23;;;5.90;;
63693;SDS011;49839;51.798;10.954;2023-02-15T12:26:44;9.23;;;5.72;;
63693;SDS011;49839;51.798;10.954;2023-02-15T12:29:23;8.77;;;4.85;;
63693;SDS011;49839;51.798;10.954;2023-02-15T12:31:54;11.20;;;4.20;;
63693;SDS011;49839;51.798;10.954;2023-02-15T12:34:22;28.58;;;6.35;;
63693;SDS011;49839;51.798;10.954;2023-02-15T12:36:51;13.65;;;5.65;;
63693;SDS011;49839;51.798;10.954;2023-02-15T12:39:21;12.35;;;4.90;;
63693;SDS011;49839;51.798;10.954;2023-02-15T12:41:57;8.27;;;4.33;;
63693;SDS011;49839;51.798;10.954;2023-02-15T12:44:25;8.23;;;4.90;;
63693;SDS011;49839;51.798;10.954;2023-02-15T12:46:57;10.60;;;5.05;;
63693;SDS011;49839;51.798;10.954;2023-02-15T12:49:25;12.32;;;5.30;;
63693;SDS011;49839;51.798;10.954;2023-02-15T12:51:54;11.93;;;4.85;;
63693;SDS011;49839;51.798;10.954;2023-02-15T12:54:32;12.18;;;3.83;;
63693;SDS011;49839;51.798;10.954;2023-02-15T12:57:12;8.00;;;3.50;;
63693;SDS011;49839;51.798;10.954;2023-02-15T12:59:47;5.50;;;2.75;;
63693;SDS011;49839;51.798;10.954;2023-02-15T13:02:17;6.97;;;2.88;;
63693;SDS011;49839;51.798;10.954;2023-02-15T13:04:48;6.90;;;3.03;;
63693;SDS011;49839;51.798;10.954;2023-02-15T13:07:15;12.40;;;4.10;;
63693;SDS011;49839;51.798;10.954;2023-02-15T13:09:43;7.88;;;3.88;;
63693;SDS011;49839;51.798;10.954;2023-02-15T13:12:14;13.60;;;3.95;;
63693;SDS011;49839;51.798;10.954;2023-02-15T13:14:43;9.38;;;3.75;;
63693;SDS011;49839;51.798;10.954;2023-02-15T13:17:11;8.95;;;3.15;;
63693;SDS011;49839;51.798;10.954;2023-02-15T13:19:41;7.00;;;3.15;;
63693;SDS011;49839;51.798;10.954;2023-02-15T13:24:37;5.43;;;2.70;;
63693;SDS011;49839;51.798;10.954;2023-02-15T13:27:08;9.82;;;2.80;;
63693;SDS011;49839;51.798;10.954;2023-02-15T13:29:42;6.43;;;2.97;;
63693;SDS011;49839;51.798;10.954;2023-02-15T13:32:12;6.68;;;3.28;;
63693;SDS011;49839;51.798;10.954;2023-02-15T13:34:42;9.05;;;3.05;;
63693;SDS011;49839;51.798;10.954;2023-02-15T13:37:11;7.57;;;3.17;;
63693;SDS011;49839;51.798;10.954;2023-02-15T13:39:41;9.95;;;3.70;;
63693;SDS011;49839;51.798;10.954;2023-02-15T13:42:14;6.95;;;3.80;;
63693;SDS011;49839;51.798;10.954;2023-02-15T13:44:55;7.93;;;3.63;;
63693;SDS011;49839;51.798;10.954;2023-02-15T13:47:28;7.22;;;4.18;;
63693;SDS011;49839;51.798;10.954;2023-02-15T13:50:10;7.70;;;3.40;;
63693;SDS011;49839;51.798;10.954;2023-02-15T13:52:41;14.73;;;3.92;;
63693;SDS011;49839;51.798;10.954;2023-02-15T13:55:18;6.95;;;3.75;;
63693;SDS011;49839;51.798;10.954;2023-02-15T13:57:53;10.57;;;3.88;;
63693;SDS011;49839;51.798;10.954;2023-02-15T14:00:28;7.85;;;3.70;;
63693;SDS011;49839;51.798;10.954;2023-02-15T14:03:11;30.42;;;17.25;;
63693;SDS011;49839;51.798;10.954;2023-02-15T14:05:49;12.57;;;5.00;;
63693;SDS011;49839;51.798;10.954;2023-02-15T14:08:20;14.18;;;5.28;;
63693;SDS011;49839;51.798;10.954;2023-02-15T14:10:51;11.20;;;4.55;;
63693;SDS011;49839;51.798;10.954;2023-02-15T14:13:34;8.85;;;4.63;;
63693;SDS011;49839;51.798;10.954;2023-02-15T14:16:07;8.30;;;4.25;;
63693;SDS011;49839;51.798;10.954;2023-02-15T14:18:38;9.45;;;4.47;;
63693;SDS011;49839;51.798;10.954;2023-02-15T14:21:13;7.38;;;3.20;;
63693;SDS011;49839;51.798;10.954;2023-02-15T14:23:43;8.15;;;3.75;;
63693;SDS011;49839;51.798;10.954;2023-02-15T14:26:17;8.50;;;3.63;;
63693;SDS011;49839;51.798;10.954;2023-02-15T14:28:49;10.43;;;4.50;;
63693;SDS011;49839;51.798;10.954;2023-02-15T14:31:18;8.65;;;3.75;;
63693;SDS011;49839;51.798;10.954;2023-02-15T14:33:52;7.70;;;3.58;;
63693;SDS011;49839;51.798;10.954;2023-02-15T14:36:21;9.07;;;4.40;;
63693;SDS011;49839;51.798;10.954;2023-02-15T14:39:00;11.50;;;5.53;;
63693;SDS011;49839;51.798;10.954;2023-02-15T14:41:36;10.63;;;6.13;;
63693;SDS011;49839;51.798;10.954;2023-02-15T14:44:05;13.57;;;6.43;;
63693;SDS011;49839;51.798;10.954;2023-02-15T14:46:36;9.95;;;6.65;;
63693;SDS011;49839;51.798;10.954;2023-02-15T14:49:06;9.93;;;6.22;;
63693;SDS011;49839;51.798;10.954;2023-02-15T14:57:22;8.90;;;5.43;;
63693;SDS011;49839;51.798;10.954;2023-02-15T14:59:52;8.50;;;4.40;;
63693;SDS011;49839;51.798;10.954;2023-02-15T15:02:23;11.98;;;4.68;;
63693;SDS011;49839;51.798;10.954;2023-02-15T15:04:56;12.93;;;5.43;;